createdAt,value
2017-08-22T00:03:26.653Z,71.00
2017-08-22T00:08:54.901Z,71.20
2017-08-22T00:14:23.068Z,71.30
2017-08-22T00:19:51.318Z,71.50
2017-08-22T00:25:19.496Z,71.50
2017-08-22T00:30:47.804Z,71.60
2017-08-22T00:36:15.957Z,71.60
2017-08-22T00:41:44.198Z,71.80
2017-08-22T00:47:12.374Z,71.90
2017-08-22T00:52:40.530Z,71.90
2017-08-22T00:58:08.730Z,71.90
2017-08-22T01:03:36.881Z,72.20
2017-08-22T01:09:05.121Z,72.40
2017-08-22T01:14:33.289Z,72.20
2017-08-22T01:20:01.449Z,72.40
2017-08-22T01:25:29.600Z,72.50
2017-08-22T01:30:57.754Z,72.60
2017-08-22T01:36:25.918Z,72.70
2017-08-22T01:41:54.191Z,72.70
2017-08-22T01:47:22.346Z,72.80
2017-08-22T01:52:50.512Z,73.00
2017-08-22T01:58:18.712Z,72.70
2017-08-22T02:03:46.855Z,72.90
2017-08-22T02:09:14.995Z,72.90
2017-08-22T02:14:43.217Z,73.10
2017-08-22T02:20:11.368Z,73.30
2017-08-22T02:25:39.511Z,73.40
2017-08-22T02:31:07.661Z,73.20
2017-08-22T02:36:35.818Z,73.30
2017-08-22T02:42:04.263Z,73.50
2017-08-22T02:47:32.498Z,73.30
2017-08-22T02:53:00.636Z,73.40
2017-08-22T02:58:28.791Z,73.40
2017-08-22T03:03:56.930Z,73.40
2017-08-22T03:09:25.086Z,73.40
2017-08-22T03:14:53.281Z,73.40
2017-08-22T03:20:21.431Z,73.70
2017-08-22T03:25:49.592Z,73.70
2017-08-22T03:31:17.736Z,73.90
2017-08-22T03:36:45.879Z,73.90
2017-08-22T03:42:14.015Z,73.90
2017-08-22T03:47:42.147Z,73.80
2017-08-22T03:53:10.279Z,73.80
2017-08-22T03:58:38.409Z,73.80
2017-08-22T04:04:06.547Z,74.00
2017-08-22T04:09:34.694Z,74.10
2017-08-22T04:15:03.210Z,74.00
2017-08-22T04:20:31.351Z,75.00
2017-08-22T04:25:59.500Z,75.20
2017-08-22T04:31:27.644Z,75.40
2017-08-22T04:36:55.805Z,75.40
2017-08-22T04:42:23.982Z,75.50
2017-08-22T04:47:52.116Z,75.60
2017-08-22T04:53:20.325Z,75.50
2017-08-22T04:58:48.478Z,74.50
2017-08-22T05:04:16.605Z,74.50
2017-08-22T05:09:44.761Z,74.60
2017-08-22T05:15:13.276Z,74.80
2017-08-22T05:20:41.429Z,74.60
2017-08-22T05:26:09.581Z,74.60
2017-08-22T05:31:37.736Z,74.90
2017-08-22T05:37:05.871Z,74.20
2017-08-22T05:42:34.036Z,74.20
2017-08-22T05:48:02.184Z,74.00
2017-08-22T05:53:30.348Z,73.70
2017-08-22T05:58:58.509Z,73.60
2017-08-22T06:04:26.691Z,73.50
2017-08-22T06:09:54.850Z,73.40
2017-08-22T06:15:23.025Z,73.30
2017-08-22T06:20:51.846Z,72.90
2017-08-22T06:26:20.039Z,72.80
2017-08-22T06:31:48.217Z,72.40
2017-08-22T06:37:16.379Z,72.20
2017-08-22T06:42:44.532Z,71.90
2017-08-22T06:48:12.707Z,71.80
2017-08-22T06:53:40.873Z,71.50
2017-08-22T06:59:09.005Z,70.80
2017-08-22T07:04:37.152Z,70.40
2017-08-22T07:10:05.304Z,69.80
2017-08-22T07:15:34.217Z,69.20
2017-08-22T07:21:02.369Z,69.20
2017-08-22T07:26:30.514Z,68.10
2017-08-22T07:31:58.981Z,67.50
2017-08-22T07:37:27.146Z,67.30
2017-08-22T07:42:55.376Z,66.10
2017-08-22T07:48:23.554Z,66.20
2017-08-22T07:53:51.745Z,65.90
2017-08-22T07:59:19.900Z,65.00
2017-08-22T08:04:48.072Z,64.40
2017-08-22T08:10:16.219Z,62.20
2017-08-22T08:15:44.354Z,61.20
2017-08-22T08:21:12.504Z,60.50
2017-08-22T08:26:40.684Z,59.80
2017-08-22T08:32:08.855Z,58.40
2017-08-22T08:37:37.000Z,57.40
2017-08-22T08:43:05.160Z,55.40
2017-08-22T08:48:33.348Z,55.90
2017-08-22T08:54:01.537Z,53.90
2017-08-22T08:59:29.691Z,54.90
2017-08-22T09:04:57.850Z,53.60
2017-08-22T09:10:26.031Z,51.90
2017-08-22T09:15:54.205Z,50.30
2017-08-22T09:21:22.384Z,51.90
2017-08-22T09:26:50.547Z,51.40
2017-08-22T09:32:18.696Z,51.80
2017-08-22T09:37:46.864Z,50.50
2017-08-22T09:43:15.023Z,51.20
2017-08-22T09:48:43.186Z,50.60
2017-08-22T09:54:11.344Z,51.10
2017-08-22T09:59:39.488Z,50.80
2017-08-22T10:05:07.627Z,50.20
2017-08-22T10:10:35.806Z,49.50
2017-08-22T10:16:03.977Z,49.80
2017-08-22T10:21:32.154Z,48.60
2017-08-22T10:27:00.348Z,48.30
2017-08-22T10:32:28.494Z,48.40
2017-08-22T10:37:56.665Z,47.10
2017-08-22T10:43:24.903Z,47.50
2017-08-22T10:48:53.108Z,47.70
2017-08-22T10:54:21.302Z,46.50
2017-08-22T10:59:49.531Z,47.30
2017-08-22T11:05:17.692Z,46.20
2017-08-22T11:10:45.855Z,46.50
2017-08-22T11:16:13.994Z,46.80
2017-08-22T11:21:42.146Z,46.50
2017-08-22T11:27:10.299Z,46.50
2017-08-22T11:32:38.446Z,46.10
2017-08-22T11:38:06.608Z,45.70
2017-08-22T11:43:34.747Z,45.00
2017-08-22T11:49:02.911Z,46.40
2017-08-22T11:54:31.046Z,45.00
2017-08-22T11:59:59.187Z,44.80
2017-08-22T12:05:27.365Z,44.40
2017-08-22T12:10:55.516Z,44.50
2017-08-22T12:16:23.706Z,44.10
2017-08-22T12:21:51.925Z,44.10
2017-08-22T12:27:20.092Z,44.60
2017-08-22T12:32:48.284Z,44.50
2017-08-22T12:38:16.450Z,44.20
2017-08-22T12:43:44.606Z,43.40
2017-08-22T12:49:12.746Z,45.00
2017-08-22T12:54:40.907Z,43.90
2017-08-22T13:00:09.059Z,44.50
2017-08-22T13:05:37.200Z,43.10
2017-08-22T13:11:05.359Z,43.50
2017-08-22T13:16:33.508Z,44.10
2017-08-22T13:22:01.670Z,43.60
2017-08-22T13:27:29.807Z,43.70
2017-08-22T13:32:57.958Z,44.20
2017-08-22T13:38:26.129Z,42.90
2017-08-22T13:43:54.325Z,43.50
2017-08-22T13:49:22.495Z,44.50
2017-08-22T13:54:50.705Z,44.90
2017-08-22T14:00:18.867Z,43.00
2017-08-22T14:05:47.076Z,43.30
2017-08-22T14:11:15.214Z,43.90
2017-08-22T14:16:43.365Z,43.10
2017-08-22T14:22:15.360Z,42.20
2017-08-22T14:27:43.984Z,39.60
2017-08-22T14:33:12.140Z,36.70
2017-08-22T14:38:40.279Z,31.70
2017-08-22T14:44:08.433Z,28.40
2017-08-22T14:49:36.605Z,26.80
2017-08-22T14:55:05.076Z,25.80
2017-08-22T15:00:33.311Z,24.80
2017-08-22T15:06:01.480Z,25.30
2017-08-22T15:11:29.623Z,27.00
2017-08-22T15:16:57.785Z,29.40
2017-08-22T15:22:25.939Z,32.50
2017-08-22T15:27:54.918Z,35.20
2017-08-22T15:33:23.116Z,35.10
2017-08-22T15:38:51.364Z,35.60
2017-08-22T15:44:19.558Z,36.50
2017-08-22T15:49:47.719Z,38.70
2017-08-22T15:55:15.880Z,38.10
2017-08-22T16:00:44.061Z,39.50
2017-08-22T16:06:12.224Z,40.10
2017-08-22T16:11:40.391Z,40.90
2017-08-22T16:17:08.546Z,41.30
2017-08-22T16:22:36.693Z,42.10
2017-08-22T16:28:04.864Z,41.90
2017-08-22T16:33:33.058Z,42.80
2017-08-22T16:39:01.215Z,42.90
2017-08-22T16:44:29.419Z,43.60
2017-08-22T16:49:57.606Z,44.10
2017-08-22T16:55:26.009Z,44.30
2017-08-22T17:00:54.254Z,44.80
2017-08-22T17:06:22.448Z,44.80
2017-08-22T17:11:50.644Z,45.00
2017-08-22T17:17:18.828Z,45.00
2017-08-22T17:22:46.980Z,45.30
2017-08-22T17:28:15.129Z,45.60
2017-08-22T17:33:43.278Z,45.90
2017-08-22T17:39:11.479Z,46.20
2017-08-22T17:44:39.639Z,46.60
2017-08-22T17:50:07.849Z,47.10
2017-08-22T17:55:36.927Z,47.90
2017-08-22T18:01:06.089Z,47.90
2017-08-22T18:06:34.269Z,48.80
2017-08-22T18:12:02.414Z,48.70
2017-08-22T18:17:30.569Z,49.20
2017-08-22T18:22:58.793Z,49.60
2017-08-22T18:28:26.957Z,49.90
2017-08-22T18:33:55.151Z,50.10
2017-08-22T18:39:23.366Z,50.50
2017-08-22T18:44:52.810Z,51.50
2017-08-22T18:50:21.122Z,51.40
2017-08-22T18:55:49.380Z,52.20
2017-08-22T19:01:17.554Z,51.50
2017-08-22T19:06:45.710Z,52.20
2017-08-22T19:12:13.863Z,52.00
2017-08-22T19:17:42.033Z,52.60
2017-08-22T19:23:10.286Z,52.70
2017-08-22T19:28:38.450Z,53.20
2017-08-22T19:34:06.632Z,53.50
2017-08-22T19:39:34.862Z,54.10
2017-08-22T19:45:03.056Z,54.40
2017-08-22T19:50:31.221Z,54.90
2017-08-22T19:55:59.367Z,55.30
2017-08-22T20:01:27.537Z,55.90
2017-08-22T20:06:55.842Z,56.50
2017-08-22T20:12:24.065Z,57.00
2017-08-22T20:17:52.284Z,57.30
2017-08-22T20:23:20.504Z,57.40
2017-08-22T20:28:48.691Z,57.90
2017-08-22T20:34:16.859Z,58.20
2017-08-22T20:39:45.003Z,58.60
2017-08-22T20:45:13.168Z,59.00
2017-08-22T20:50:41.344Z,59.60
2017-08-22T20:56:09.518Z,59.80
2017-08-22T21:01:37.663Z,60.50
2017-08-22T21:07:05.827Z,60.60
2017-08-22T21:12:33.977Z,61.20
2017-08-22T21:18:02.238Z,61.80
2017-08-22T21:23:30.540Z,62.10
2017-08-22T21:28:58.717Z,61.90
2017-08-22T21:34:26.897Z,62.70
2017-08-22T21:39:55.065Z,62.90
2017-08-22T21:45:23.240Z,63.00
2017-08-22T21:50:51.429Z,63.30
2017-08-22T21:56:19.611Z,63.70
2017-08-22T22:01:47.764Z,64.00
2017-08-22T22:07:15.930Z,64.70
2017-08-22T22:12:44.085Z,64.60
2017-08-22T22:18:12.264Z,64.80
2017-08-22T22:23:40.421Z,65.10
2017-08-22T22:29:09.492Z,65.00
2017-08-22T22:34:37.681Z,65.20
2017-08-22T22:40:05.840Z,65.40
2017-08-22T22:45:34.009Z,65.60
2017-08-22T22:51:02.208Z,65.60
2017-08-22T22:56:30.354Z,66.10
2017-08-22T23:01:58.598Z,65.90
2017-08-22T23:07:26.767Z,66.20
2017-08-22T23:12:55.920Z,66.50
2017-08-22T23:18:24.107Z,66.70
2017-08-22T23:23:53.320Z,67.00
2017-08-22T23:29:21.480Z,67.10
2017-08-22T23:34:49.702Z,67.30
2017-08-22T23:40:17.856Z,67.50
2017-08-22T23:45:46.030Z,67.80
2017-08-22T23:51:14.167Z,67.90
2017-08-22T23:56:42.407Z,68.10
